createdAt,value
2017-11-20T15:16:45.267Z,49.10
2017-11-20T15:19:12.791Z,49.00
2017-11-20T15:21:40.436Z,48.90
2017-11-20T15:24:08.035Z,48.90
2017-11-20T15:26:35.657Z,49.00
2017-11-20T15:29:03.464Z,49.00
2017-11-20T15:31:31.799Z,49.40
2017-11-20T15:33:59.421Z,49.40
2017-11-20T15:36:27.095Z,49.50
2017-11-20T15:38:54.652Z,49.40
2017-11-20T15:41:22.271Z,49.30
2017-11-20T15:43:50.594Z,49.30
2017-11-20T15:46:18.456Z,49.30
2017-11-20T15:48:46.146Z,49.40
2017-11-20T15:51:13.717Z,49.50
2017-11-20T15:53:41.309Z,49.50
2017-11-20T15:56:09.209Z,49.80
2017-11-20T15:58:36.970Z,49.90
2017-11-20T16:01:04.688Z,49.90
2017-11-20T16:03:33.267Z,50.10
2017-11-20T16:06:01.664Z,50.10
2017-11-20T16:08:29.227Z,50.00
2017-11-20T16:10:57.532Z,50.20
2017-11-20T16:13:25.098Z,50.10
2017-11-20T16:15:52.637Z,50.00
2017-11-20T16:18:20.316Z,50.20
2017-11-20T16:20:48.079Z,50.40
2017-11-20T16:23:15.655Z,50.40
2017-11-20T16:25:43.172Z,50.20
2017-11-20T16:28:10.732Z,50.40
2017-11-20T16:30:39.052Z,50.40
2017-11-20T16:33:08.133Z,50.40
2017-11-20T16:35:35.771Z,50.30
2017-11-20T16:38:03.290Z,50.20
2017-11-20T16:40:31.080Z,50.30
2017-11-20T16:42:59.365Z,50.20
2017-11-20T16:45:26.954Z,50.10
2017-11-20T16:47:54.558Z,50.20
2017-11-20T16:50:22.278Z,50.20
2017-11-20T16:52:49.871Z,50.50
2017-11-20T16:55:17.397Z,50.30
2017-11-20T16:57:56.837Z,50.30
2017-11-20T17:00:32.991Z,50.40
2017-11-20T17:03:10.457Z,50.40
2017-11-20T17:05:38.744Z,50.60
2017-11-20T17:08:07.220Z,50.60
2017-11-20T17:10:35.629Z,50.30
2017-11-20T17:13:03.155Z,50.30
2017-11-20T17:15:30.695Z,50.10
2017-11-20T17:17:58.254Z,50.20
2017-11-20T17:20:26.072Z,50.20
2017-11-20T17:22:53.601Z,50.60
2017-11-20T17:25:21.297Z,50.60
2017-11-20T17:27:48.831Z,50.70
2017-11-20T17:30:16.425Z,50.60
2017-11-20T17:32:44.080Z,50.80
2017-11-20T17:35:11.647Z,50.80
2017-11-20T17:37:39.174Z,50.70
2017-11-20T17:40:06.958Z,50.60
2017-11-20T17:42:34.627Z,50.60
2017-11-20T17:45:02.183Z,50.30
2017-11-20T17:47:29.947Z,50.10
2017-11-20T17:49:57.634Z,50.00
2017-11-20T17:52:25.160Z,50.10
2017-11-20T17:54:52.786Z,50.20
2017-11-20T17:57:20.434Z,50.40
2017-11-20T17:59:48.025Z,51.50
2017-11-20T18:02:15.788Z,52.40
2017-11-20T18:04:43.348Z,53.00
2017-11-20T18:07:11.637Z,54.30
2017-11-20T18:09:39.161Z,54.20
2017-11-20T18:12:07.491Z,55.30
2017-11-20T18:14:35.023Z,55.30
2017-11-20T18:17:02.580Z,56.30
2017-11-20T18:19:30.211Z,56.60
2017-11-20T18:21:57.758Z,57.20
2017-11-20T18:24:25.272Z,57.90
2017-11-20T18:26:53.252Z,58.40
2017-11-20T18:29:20.775Z,58.80
2017-11-20T18:31:48.679Z,59.40
2017-11-20T18:34:16.290Z,60.50
2017-11-20T18:36:43.982Z,60.20
2017-11-20T18:39:11.511Z,60.20
2017-11-20T18:41:39.227Z,60.10
2017-11-20T18:44:06.852Z,61.10
2017-11-20T18:46:34.371Z,61.10
2017-11-20T18:49:01.945Z,60.30
2017-11-20T18:51:29.614Z,60.40
2017-11-20T18:53:57.422Z,60.50
2017-11-20T18:56:24.952Z,60.60
2017-11-20T18:58:52.481Z,60.30
2017-11-20T19:01:31.861Z,60.10
2017-11-20T19:04:11.090Z,60.70
2017-11-20T19:06:50.370Z,60.00
2017-11-20T19:09:17.950Z,60.50
2017-11-20T19:11:45.516Z,60.00
2017-11-20T19:14:13.036Z,59.60
2017-11-20T19:16:40.727Z,59.70
2017-11-20T19:19:08.291Z,60.60
2017-11-20T19:21:35.831Z,60.40
2017-11-20T19:24:03.395Z,59.90
2017-11-20T19:26:31.131Z,59.60
2017-11-20T19:28:58.662Z,59.60
2017-11-20T19:31:27.131Z,60.10
2017-11-20T19:33:54.660Z,60.10
2017-11-20T19:36:22.214Z,60.50
2017-11-20T19:38:49.736Z,60.10
2017-11-20T19:41:17.328Z,60.10
2017-11-20T19:43:44.882Z,60.10
2017-11-20T19:46:12.486Z,60.40
2017-11-20T19:48:40.011Z,60.40
2017-11-20T19:51:07.563Z,60.10
2017-11-20T19:53:35.163Z,60.20
2017-11-20T19:56:02.690Z,59.90
2017-11-20T19:58:30.302Z,60.20
2017-11-20T20:00:58.589Z,60.10
2017-11-20T20:03:26.138Z,60.00
2017-11-20T20:05:53.715Z,61.50
2017-11-20T20:08:21.499Z,60.50
2017-11-20T20:10:49.020Z,59.90
2017-11-20T20:13:16.773Z,60.30
2017-11-20T20:15:44.343Z,60.30
2017-11-20T20:18:12.712Z,60.90
2017-11-20T20:20:40.292Z,60.90
2017-11-20T20:23:07.896Z,60.30
2017-11-20T20:25:35.489Z,61.00
2017-11-20T20:28:03.213Z,60.80
2017-11-20T20:30:30.758Z,60.60
2017-11-20T20:32:58.326Z,60.60
2017-11-20T20:35:25.889Z,61.00
2017-11-20T20:37:53.476Z,61.00
2017-11-20T20:40:21.027Z,61.40
2017-11-20T20:42:48.637Z,61.40
2017-11-20T20:45:16.227Z,61.40
2017-11-20T20:47:43.804Z,61.50
2017-11-20T20:50:11.445Z,61.50
2017-11-20T20:52:39.033Z,61.50
2017-11-20T20:55:09.590Z,61.30
2017-11-20T20:57:35.056Z,61.50
2017-11-20T21:00:02.635Z,61.40
2017-11-20T21:02:30.193Z,61.70
2017-11-20T21:04:57.780Z,61.40
2017-11-20T21:07:25.368Z,61.50
2017-11-20T21:09:58.613Z,61.60
2017-11-20T21:12:26.192Z,61.50
2017-11-20T21:14:53.724Z,61.10
2017-11-20T21:17:21.286Z,61.00
2017-11-20T21:19:48.876Z,60.80
2017-11-20T21:22:16.445Z,60.60
2017-11-20T21:24:44.752Z,60.80
2017-11-20T21:27:12.274Z,60.70
2017-11-20T21:29:40.592Z,60.70
2017-11-20T21:32:08.167Z,60.40
2017-11-20T21:34:35.735Z,60.50
2017-11-20T21:37:03.320Z,60.10
2017-11-20T21:39:30.873Z,59.60
2017-11-20T21:41:58.425Z,58.70
2017-11-20T21:44:26.061Z,58.90
2017-11-20T21:46:53.613Z,58.70
2017-11-20T21:49:21.216Z,59.40
2017-11-20T21:51:48.756Z,58.60
2017-11-20T21:54:16.367Z,58.50
2017-11-20T21:56:43.922Z,58.60
2017-11-20T21:59:12.302Z,59.00
2017-11-20T22:01:40.606Z,58.60
2017-11-20T22:04:08.183Z,58.60
2017-11-20T22:06:35.772Z,58.60
2017-11-20T22:09:03.350Z,59.10
2017-11-20T22:11:31.740Z,58.90
2017-11-20T22:14:00.108Z,58.70
2017-11-20T22:16:28.485Z,58.20
2017-11-20T22:18:56.029Z,58.10
2017-11-20T22:21:24.061Z,58.30
2017-11-20T22:23:51.599Z,58.40
2017-11-20T22:26:19.121Z,58.50
2017-11-20T22:28:46.720Z,58.50
2017-11-20T22:31:14.291Z,58.50
2017-11-20T22:33:41.860Z,58.90
2017-11-20T22:36:09.455Z,58.80
2017-11-20T22:38:37.020Z,59.30
2017-11-20T22:41:04.543Z,59.50
2017-11-20T22:43:32.119Z,59.80
2017-11-20T22:45:59.691Z,59.90
2017-11-20T22:48:27.217Z,60.30
2017-11-20T22:50:54.782Z,60.30
2017-11-20T22:53:22.330Z,60.40
2017-11-20T22:55:50.001Z,60.30
2017-11-20T22:58:17.559Z,60.60
2017-11-20T23:00:45.131Z,60.70
2017-11-20T23:03:12.653Z,60.80
2017-11-20T23:05:40.314Z,60.70
2017-11-20T23:08:07.841Z,60.60
2017-11-20T23:10:35.516Z,60.40
2017-11-20T23:13:03.077Z,60.50
2017-11-20T23:15:31.585Z,60.80
2017-11-20T23:17:59.172Z,60.40
2017-11-20T23:20:26.704Z,60.60
2017-11-20T23:22:54.272Z,60.70
2017-11-20T23:25:21.799Z,60.50
2017-11-20T23:27:50.838Z,61.10
2017-11-20T23:30:19.500Z,60.90
2017-11-20T23:32:47.059Z,60.70
2017-11-20T23:35:14.619Z,60.60
2017-11-20T23:37:42.183Z,61.40
2017-11-20T23:40:10.387Z,60.40
2017-11-20T23:42:37.953Z,60.80
2017-11-20T23:45:05.469Z,60.90
2017-11-20T23:47:32.991Z,60.70
2017-11-20T23:50:00.544Z,61.10
2017-11-20T23:52:28.094Z,61.00
2017-11-20T23:54:55.641Z,60.80
2017-11-20T23:57:23.329Z,60.90
2017-11-20T23:59:51.139Z,61.20
